Time;durP1;ratioP1;P1;durP2;ratioP2;P2;SDS_P1;SDS_P2;PMS_P1;PMS_P2;Temp;Humidity;BMP_temperature;BMP_pressure;BME280_temperature;BME280_humidity;BME280_pressure;Samples;Min_cycle;Max_cycle;Signal;HPM_P1;HPM_P2
2023/09/07 00:02:19;;;;;;;14.60;7.32;;;;;;;22.63;67.65;101150.47;4990179;28;20061;-78
2023/09/07 00:04:45;;;;;;;9.48;6.60;;;;;;;22.61;67.50;101150.69;4990641;28;20475;-79
2023/09/07 00:07:10;;;;;;;12.25;6.60;;;;;;;22.50;67.27;101131.13;4990097;28;20038;-80
2023/09/07 00:09:36;;;;;;;12.93;7.03;;;;;;;22.52;67.18;101140.84;4990376;28;20030;-80
2023/09/07 00:12:01;;;;;;;15.48;7.05;;;;;;;22.49;66.92;101135.75;4989971;28;20026;-80
2023/09/07 00:14:27;;;;;;;11.48;6.75;;;;;;;22.53;66.53;101142.56;4989928;28;20514;-80
2023/09/07 00:16:52;;;;;;;14.88;6.68;;;;;;;22.41;66.85;101133.13;4989494;28;20069;-82
2023/09/07 00:19:17;;;;;;;9.40;6.72;;;;;;;22.47;66.74;101140.59;4990228;28;20109;-80
2023/09/07 00:21:43;;;;;;;13.25;7.28;;;;;;;22.41;66.76;101137.75;4989836;28;22072;-79
2023/09/07 00:24:10;;;;;;;9.73;6.30;;;;;;;22.35;66.69;101133.88;4990285;28;20018;-80
2023/09/07 00:26:35;;;;;;;16.35;7.50;;;;;;;22.33;66.70;101127.72;4990057;28;20038;-80
2023/09/07 00:29:01;;;;;;;16.42;7.07;;;;;;;22.33;66.26;101137.81;4989910;28;20045;-80
2023/09/07 00:31:26;;;;;;;12.85;6.85;;;;;;;22.14;66.12;101112.69;4989984;28;20486;-80
2023/09/07 00:33:51;;;;;;;11.73;6.57;;;;;;;22.26;65.57;101131.41;4989423;28;20038;-80
2023/09/07 00:36:18;;;;;;;13.73;6.97;;;;;;;22.22;65.60;101134.53;4989940;28;20030;-80
2023/09/07 00:38:43;;;;;;;10.85;7.97;;;;;;;22.21;65.28;101131.97;4989879;28;20022;-80
2023/09/07 00:41:09;;;;;;;14.60;6.82;;;;;;;22.21;64.96;101140.19;4989343;28;20053;-80
2023/09/07 00:43:34;;;;;;;11.43;6.30;;;;;;;22.15;64.66;101138.19;4951396;28;20585;-79
2023/09/07 00:46:00;;;;;;;14.75;7.28;;;;;;;22.08;64.31;101131.75;4970381;28;20522;-80
2023/09/07 00:48:26;;;;;;;11.98;7.22;;;;;;;22.08;64.17;101126.28;4970795;28;20077;-79
2023/09/07 00:50:52;;;;;;;10.23;6.90;;;;;;;22.18;64.14;101135.09;4970205;28;20070;-79
2023/09/07 00:53:17;;;;;;;10.55;7.28;;;;;;;22.20;63.65;101139.34;4985195;28;20054;-78
2023/09/07 00:55:44;;;;;;;12.55;7.22;;;;;;;22.09;63.49;101106.06;4989533;28;20092;-83
2023/09/07 00:58:11;;;;;;;11.32;6.90;;;;;;;22.13;63.38;101123.84;4989682;28;20030;-79
2023/09/07 01:00:37;;;;;;;17.88;7.03;;;;;;;22.20;63.54;101133.00;4990764;28;20065;-80
2023/09/07 01:03:03;;;;;;;19.45;8.45;;;;;;;22.18;63.33;101126.88;4992998;28;20053;-80
2023/09/07 01:05:46;;;;;;;15.07;7.35;;;;;;;22.22;63.22;101129.06;4993471;28;20061;-80
2023/09/07 01:08:20;;;;;;;12.98;7.15;;;;;;;22.05;63.10;101100.09;4993625;28;20062;-80
2023/09/07 01:10:45;;;;;;;24.80;8.77;;;;;;;22.20;62.86;101119.28;4993873;28;20528;-80
2023/09/07 01:13:10;;;;;;;14.98;7.32;;;;;;;22.10;62.80;101103.16;4992871;28;20027;-80
2023/09/07 01:15:37;;;;;;;13.93;6.95;;;;;;;22.19;62.84;101114.88;4993318;28;20560;-80
2023/09/07 01:18:03;;;;;;;16.02;6.82;;;;;;;22.20;63.10;101114.66;4958379;28;20073;-80
2023/09/07 01:20:31;;;;;;;18.73;8.73;;;;;;;22.17;63.47;101115.03;4993622;28;20069;-79
2023/09/07 01:22:57;;;;;;;16.17;6.57;;;;;;;22.22;63.59;101119.97;4993548;28;20084;-80
2023/09/07 01:25:23;;;;;;;16.73;7.68;;;;;;;22.23;63.66;101118.94;4992903;28;20416;-80
2023/09/07 01:27:49;;;;;;;11.52;7.63;;;;;;;22.20;63.69;101125.63;4993465;28;20129;-79
2023/09/07 01:30:16;;;;;;;9.70;7.03;;;;;;;22.18;64.17;101116.75;4958147;28;20039;-80
2023/09/07 01:32:42;;;;;;;18.20;6.43;;;;;;;22.18;64.13;101119.50;4992038;28;20577;-79
2023/09/07 01:35:11;;;;;;;14.35;6.68;;;;;;;22.12;64.67;101122.13;4992797;28;20061;-79
2023/09/07 01:37:36;;;;;;;8.25;6.63;;;;;;;22.11;64.99;101114.94;4992610;28;20113;-79
2023/09/07 01:40:07;;;;;;;13.30;7.25;;;;;;;22.10;64.90;101113.25;4975533;28;20153;-78
2023/09/07 01:42:32;;;;;;;11.02;7.78;;;;;;;22.13;64.85;101112.88;4993320;28;20053;-79
2023/09/07 01:44:58;;;;;;;15.07;8.00;;;;;;;22.10;64.69;101118.75;4992347;28;20479;-79
2023/09/07 01:47:23;;;;;;;12.25;7.78;;;;;;;22.12;64.69;101114.78;4992499;28;20061;-79
2023/09/07 01:49:48;;;;;;;17.95;7.50;;;;;;;22.10;65.00;101113.25;4992986;28;20092;-79
2023/09/07 01:52:14;;;;;;;9.77;7.18;;;;;;;22.16;65.17;101118.00;4992602;28;20037;-81
2023/09/07 01:54:39;;;;;;;11.30;6.97;;;;;;;22.14;65.82;101115.41;4992671;28;20026;-79
2023/09/07 01:57:04;;;;;;;10.27;7.72;;;;;;;22.14;66.05;101117.31;4992324;28;20069;-80
2023/09/07 01:59:30;;;;;;;11.80;7.43;;;;;;;22.13;66.46;101118.38;4992360;28;20026;-80
2023/09/07 02:01:55;;;;;;;14.90;7.65;;;;;;;22.14;66.66;101120.03;4992745;28;20023;-79
2023/09/07 02:04:21;;;;;;;14.23;9.05;;;;;;;22.02;67.11;101122.41;4992577;28;20554;-79
2023/09/07 02:06:46;;;;;;;10.18;7.65;;;;;;;21.93;67.34;101095.28;4992625;28;20121;-79
2023/09/07 02:09:11;;;;;;;15.35;8.43;;;;;;;22.01;67.68;101114.38;4992559;28;20314;-79
2023/09/07 02:11:37;;;;;;;12.80;8.88;;;;;;;21.98;68.19;101117.50;4992022;28;20395;-79
2023/09/07 02:14:02;;;;;;;14.75;7.78;;;;;;;21.98;68.25;101121.09;4992056;28;20029;-80
2023/09/07 02:16:28;;;;;;;19.40;8.98;;;;;;;21.92;68.62;101112.78;4992825;28;20623;-80
2023/09/07 02:19:01;;;;;;;15.68;8.65;;;;;;;21.94;69.11;101113.41;4993736;28;20542;-79
2023/09/07 02:21:27;;;;;;;13.07;8.85;;;;;;;21.91;69.05;101122.88;4996645;28;20038;-78
2023/09/07 02:23:52;;;;;;;14.30;9.38;;;;;;;21.91;69.34;101124.75;5018236;28;20018;-79
2023/09/07 02:26:18;;;;;;;24.02;10.13;;;;;;;21.86;69.49;101110.75;5018060;28;20045;-79
2023/09/07 02:28:43;;;;;;;16.92;9.65;;;;;;;21.76;69.49;101088.25;5009713;28;20117;-81
2023/09/07 02:31:09;;;;;;;14.68;10.27;;;;;;;21.90;69.57;101123.03;4993825;28;20027;-80
2023/09/07 02:33:35;;;;;;;15.07;9.82;;;;;;;21.68;69.86;101081.78;4995603;28;20045;-80
2023/09/07 02:36:00;;;;;;;13.75;9.30;;;;;;;21.87;69.99;101112.41;4978486;28;20397;-79
2023/09/07 02:38:26;;;;;;;27.08;11.82;;;;;;;21.86;69.71;101110.75;4992140;28;20133;-80
2023/09/07 02:40:52;;;;;;;27.17;11.15;;;;;;;21.86;69.42;101108.00;4992249;28;20030;-79
2023/09/07 02:43:18;;;;;;;30.30;15.68;;;;;;;21.86;69.33;101099.78;4991675;28;20022;-79
2023/09/07 02:45:43;;;;;;;16.17;10.45;;;;;;;21.89;69.50;101096.72;4991496;28;20104;-77
2023/09/07 02:48:09;;;;;;;16.75;9.75;;;;;;;21.87;69.85;101106.94;4991869;28;20052;-81
2023/09/07 02:50:35;;;;;;;16.98;10.13;;;;;;;21.84;70.27;101099.09;4991750;28;20510;-80
2023/09/07 02:53:02;;;;;;;12.88;9.82;;;;;;;21.67;70.62;101079.25;4991624;28;20046;-79
2023/09/07 02:55:28;;;;;;;16.60;10.43;;;;;;;21.89;70.45;101118.63;4991239;28;20434;-79
2023/09/07 02:57:55;;;;;;;17.83;10.70;;;;;;;21.80;70.74;101111.50;4991360;28;20025;-81
2023/09/07 03:00:20;;;;;;;18.88;9.82;;;;;;;21.79;70.80;101104.31;4991453;28;20096;-80
2023/09/07 03:02:47;;;;;;;12.43;9.18;;;;;;;21.65;70.70;101081.31;4991405;28;20809;-79
2023/09/07 03:05:13;;;;;;;24.08;10.23;;;;;;;21.76;70.70;101119.22;4991420;28;20114;-80
2023/09/07 03:07:39;;;;;;;19.10;10.90;;;;;;;21.76;70.47;101118.38;4991674;28;20505;-80
2023/09/07 03:10:05;;;;;;;19.38;9.93;;;;;;;21.79;70.06;101120.72;4991173;28;20045;-81
2023/09/07 03:12:30;;;;;;;18.48;10.25;;;;;;;21.75;69.96;101120.25;4991081;28;20022;-79
2023/09/07 03:14:56;;;;;;;25.27;9.93;;;;;;;21.80;69.30;101126.03;4990717;28;20038;-80
2023/09/07 03:17:21;;;;;;;17.95;10.57;;;;;;;21.77;69.06;101122.81;4991074;28;20030;-80
2023/09/07 03:19:47;;;;;;;18.55;10.10;;;;;;;21.78;68.50;101135.44;4991446;28;20058;-79
2023/09/07 03:22:13;;;;;;;24.75;11.43;;;;;;;21.59;68.37;101095.75;4990882;28;20065;-80
2023/09/07 03:24:39;;;;;;;21.63;12.38;;;;;;;21.78;67.84;101132.72;4990910;28;20033;-80
2023/09/07 03:27:07;;;;;;;12.27;9.18;;;;;;;21.72;67.48;101126.09;4990719;28;20026;-79
2023/09/07 03:29:35;;;;;;;23.25;9.55;;;;;;;21.65;67.07;101125.97;4990940;28;20085;-80
2023/09/07 03:32:01;;;;;;;20.02;9.45;;;;;;;21.62;66.66;101130.97;4990893;28;20490;-81
2023/09/07 03:34:26;;;;;;;19.60;9.98;;;;;;;21.53;66.58;101121.13;4990626;28;20033;-80
2023/09/07 03:36:52;;;;;;;19.35;9.85;;;;;;;21.56;66.42;101121.59;4990982;28;20026;-80
2023/09/07 03:39:18;;;;;;;26.13;10.40;;;;;;;21.43;66.37;101115.91;4990254;28;20042;-80
2023/09/07 03:41:44;;;;;;;13.55;9.90;;;;;;;21.51;66.40;101135.00;4990530;28;20026;-81
2023/09/07 03:44:09;;;;;;;19.20;9.95;;;;;;;21.51;66.00;101136.88;4990656;28;20439;-81
2023/09/07 03:46:35;;;;;;;18.63;8.63;;;;;;;21.53;65.64;101126.59;4990903;28;20046;-80
2023/09/07 03:49:00;;;;;;;16.52;9.63;;;;;;;21.54;65.61;101144.72;4990662;28;20371;-80
2023/09/07 03:51:25;;;;;;;25.77;10.13;;;;;;;21.51;65.44;101131.41;4990717;28;20137;-86
2023/09/07 03:53:51;;;;;;;16.73;8.32;;;;;;;21.34;65.19;101111.53;4990909;28;20414;-88
2023/09/07 03:56:16;;;;;;;28.95;10.18;;;;;;;21.50;65.11;101127.81;4991004;28;20030;-85
2023/09/07 03:58:42;;;;;;;49.00;11.57;;;;;;;21.56;65.05;101138.03;4992003;28;20034;-87
2023/09/07 04:01:10;;;;;;;32.15;9.95;;;;;;;21.59;64.79;101140.41;4993829;28;20086;-89
2023/09/07 04:03:35;;;;;;;18.88;9.02;;;;;;;21.56;64.75;101138.03;4997992;28;20022;-85
2023/09/07 04:06:01;;;;;;;31.73;10.55;;;;;;;21.61;64.57;101135.63;4996579;28;20034;-88
2023/09/07 04:08:26;;;;;;;20.20;9.30;;;;;;;21.55;64.49;101130.03;4991363;28;20483;-85
2023/09/07 04:10:52;;;;;;;22.70;9.32;;;;;;;21.45;64.57;101116.56;4990828;28;20031;-89
2023/09/07 04:13:17;;;;;;;14.65;9.70;;;;;;;21.54;64.59;101134.63;4991182;28;20030;-89
2023/09/07 04:15:44;;;;;;;29.23;10.20;;;;;;;21.59;64.54;101142.28;4973962;28;20026;-85
2023/09/07 04:18:12;;;;;;;19.20;9.30;;;;;;;21.57;64.37;101127.94;4973221;28;20445;-80
2023/09/07 04:20:39;;;;;;;20.23;8.45;;;;;;;21.58;64.36;101138.72;4990330;28;20030;-80
2023/09/07 04:23:04;;;;;;;24.65;8.27;;;;;;;21.56;64.20;101120.75;4991549;28;20142;-88
2023/09/07 04:25:30;;;;;;;17.27;8.30;;;;;;;21.68;63.84;101130.22;4992225;28;20030;-85
2023/09/07 04:27:56;;;;;;;40.63;9.40;;;;;;;21.65;63.62;101125.97;4980104;28;20049;-86
2023/09/07 04:30:22;;;;;;;19.77;9.77;;;;;;;21.76;63.95;101149.34;4992580;28;20058;-81
2023/09/07 04:32:48;;;;;;;23.25;10.27;;;;;;;21.77;63.82;101139.25;4990962;28;20057;-84
2023/09/07 04:35:13;;;;;;;22.83;9.63;;;;;;;21.85;63.81;101155.59;4990032;28;20808;-82
2023/09/07 04:37:42;;;;;;;48.47;10.32;;;;;;;21.85;63.67;101147.38;4990464;28;20403;-80
2023/09/07 04:40:08;;;;;;;33.60;10.88;;;;;;;21.89;63.53;101148.75;4990612;28;20030;-80
2023/09/07 04:42:33;;;;;;;28.55;9.90;;;;;;;21.78;63.41;101128.09;4990526;28;20109;-79
2023/09/07 04:44:58;;;;;;;42.30;11.15;;;;;;;21.96;63.42;101152.44;4989824;28;20029;-78
2023/09/07 04:47:24;;;;;;;24.02;9.32;;;;;;;21.87;63.26;101131.59;4990108;28;20043;-79
2023/09/07 04:49:52;;;;;;;21.75;7.85;;;;;;;22.07;62.80;101152.84;4990169;28;20049;-80
2023/09/07 04:52:18;;;;;;;17.20;8.35;;;;;;;22.05;62.87;101154.03;4989079;28;20400;-80
2023/09/07 04:54:44;;;;;;;29.40;10.25;;;;;;;22.13;62.56;101156.72;4989733;28;20037;-80
2023/09/07 04:57:10;;;;;;;15.82;8.68;;;;;;;22.20;62.44;101157.66;4989211;28;20076;-81
2023/09/07 04:59:36;;;;;;;58.47;9.95;;;;;;;22.18;62.60;101155.13;4989921;28;20034;-79
2023/09/07 05:02:01;;;;;;;13.25;7.15;;;;;;;22.18;62.06;101151.53;4989507;28;20511;-79
2023/09/07 05:04:27;;;;;;;27.40;8.40;;;;;;;22.24;61.95;101165.34;4989302;28;20106;-80
2023/09/07 05:06:53;;;;;;;22.75;9.43;;;;;;;22.27;61.83;101164.09;4988977;28;20043;-81
2023/09/07 05:09:20;;;;;;;21.35;8.88;;;;;;;22.26;62.02;101164.31;4989020;28;20030;-81
2023/09/07 05:11:45;;;;;;;17.23;8.38;;;;;;;22.24;62.05;101159.84;4989224;28;20066;-80
2023/09/07 05:14:11;;;;;;;33.67;9.45;;;;;;;22.33;61.97;101160.59;4988765;28;20089;-80
2023/09/07 05:16:36;;;;;;;39.88;9.00;;;;;;;22.33;61.89;101155.13;4971533;28;20046;-80
2023/09/07 05:19:02;;;;;;;29.67;8.95;;;;;;;22.29;61.98;101151.09;4971595;28;20030;-80
2023/09/07 05:21:27;;;;;;;55.15;11.05;;;;;;;22.42;61.90;101156.72;4989643;28;20038;-80
2023/09/07 05:23:53;;;;;;;15.88;7.88;;;;;;;22.50;61.49;101164.03;4989292;28;20055;-80
2023/09/07 05:26:23;;;;;;;20.23;8.88;;;;;;;22.57;61.59;101162.22;4988929;28;20113;-80
2023/09/07 05:28:49;;;;;;;21.13;8.90;;;;;;;22.63;61.26;101170.53;4989384;28;20027;-79
2023/09/07 05:31:14;;;;;;;21.67;8.52;;;;;;;22.58;61.69;101159.28;4989057;28;20026;-79
2023/09/07 05:33:40;;;;;;;25.90;8.05;;;;;;;22.63;61.12;101156.81;4989308;28;20040;-80
2023/09/07 05:36:05;;;;;;;23.73;7.65;;;;;;;22.82;61.39;101179.25;4988751;28;20026;-80
2023/09/07 05:38:32;;;;;;;17.23;7.63;;;;;;;22.93;61.60;101170.56;4988728;28;20057;-81
2023/09/07 05:40:57;;;;;;;31.55;7.82;;;;;;;22.99;61.18;101159.66;4989077;28;20018;-80
2023/09/07 05:43:23;;;;;;;27.02;7.95;;;;;;;23.11;61.00;101173.72;4989551;28;20037;-80
2023/09/07 05:45:48;;;;;;;15.05;6.88;;;;;;;23.19;60.92;101165.38;4989379;28;20073;-80
2023/09/07 05:48:16;;;;;;;19.05;7.75;;;;;;;23.26;60.90;101171.78;4992493;28;20038;-80
2023/09/07 05:50:42;;;;;;;21.65;7.78;;;;;;;23.42;60.57;101177.09;4992973;28;20027;-80
2023/09/07 05:53:07;;;;;;;32.08;6.80;;;;;;;23.48;60.30;101165.31;4992697;28;20497;-80
2023/09/07 05:55:33;;;;;;;27.55;7.18;;;;;;;23.59;59.91;101162.03;4992900;28;20426;-80
2023/09/07 05:57:59;;;;;;;30.48;9.30;;;;;;;23.90;60.31;101185.56;4992368;28;20026;-80
2023/09/07 06:00:24;;;;;;;32.80;8.80;;;;;;;23.89;59.99;101162.72;4992122;28;20026;-80
2023/09/07 06:02:50;;;;;;;22.15;7.72;;;;;;;24.08;60.43;101184.03;4992543;28;20482;-80
2023/09/07 06:05:16;;;;;;;14.32;6.88;;;;;;;24.03;60.86;101152.69;4992384;28;20490;-80
2023/09/07 06:07:43;;;;;;;37.58;8.48;;;;;;;24.25;60.82;101162.59;4992817;28;20417;-80
2023/09/07 06:10:08;;;;;;;21.27;7.82;;;;;;;24.57;60.86;101192.25;4992255;28;20026;-80
2023/09/07 06:12:34;;;;;;;26.77;7.65;;;;;;;24.68;60.92;101190.81;4974314;28;20041;-81
2023/09/07 06:15:00;;;;;;;23.00;7.03;;;;;;;24.80;60.56;101180.94;4991603;28;20023;-82
2023/09/07 06:17:26;;;;;;;29.00;6.18;;;;;;;24.95;60.42;101192.69;4975017;28;20481;-80
2023/09/07 06:19:52;;;;;;;24.05;7.95;;;;;;;25.02;59.86;101181.69;4992500;28;20106;-80
2023/09/07 06:22:17;;;;;;;13.55;6.93;;;;;;;25.06;59.39;101169.22;4974448;28;20023;-80
2023/09/07 06:24:42;;;;;;;19.98;7.53;;;;;;;25.27;58.90;101197.47;4992653;28;20695;-81
2023/09/07 06:27:08;;;;;;;27.50;9.27;;;;;;;25.30;58.42;101197.06;4992532;28;20129;-81
2023/09/07 06:29:33;;;;;;;18.80;6.88;;;;;;;25.31;57.92;101206.19;4992367;28;20454;-80
2023/09/07 06:31:59;;;;;;;25.95;5.82;;;;;;;25.21;57.98;101175.41;4991329;28;20474;-81
2023/09/07 06:34:24;;;;;;;15.77;6.10;;;;;;;25.24;57.85;101180.50;4991662;28;20034;-79
2023/09/07 06:36:50;;;;;;;24.63;7.60;;;;;;;25.49;57.44;101203.72;4991505;28;20034;-80
2023/09/07 06:39:15;;;;;;;17.88;6.40;;;;;;;25.56;57.17;101207.34;4991438;28;20034;-81
2023/09/07 06:41:41;;;;;;;17.30;5.82;;;;;;;25.65;57.11;101210.75;4991720;28;20154;-81
2023/09/07 06:44:07;;;;;;;11.50;5.72;;;;;;;25.69;56.91;101218.38;4992017;28;20387;-81
2023/09/07 06:46:33;;;;;;;27.63;5.97;;;;;;;25.72;56.42;101201.44;4991278;28;20054;-81
2023/09/07 06:48:58;;;;;;;26.90;8.05;;;;;;;25.79;55.37;101207.81;4991271;28;20034;-80
2023/09/07 06:51:23;;;;;;;14.43;6.25;;;;;;;25.74;54.93;101185.53;4991693;28;20494;-81
2023/09/07 06:53:50;;;;;;;19.23;6.20;;;;;;;25.94;55.20;101216.72;4991925;28;20024;-80
2023/09/07 06:56:15;;;;;;;27.15;7.28;;;;;;;26.06;55.10;101213.31;4991851;28;20061;-81
2023/09/07 06:58:41;;;;;;;17.85;6.28;;;;;;;26.15;54.75;101204.66;4991830;28;20087;-81
2023/09/07 07:01:07;;;;;;;29.58;8.60;;;;;;;26.22;54.68;101213.78;4992090;28;20030;-79
2023/09/07 07:03:34;;;;;;;21.70;6.82;;;;;;;26.23;53.96;101198.97;4992514;28;20037;-80
2023/09/07 07:06:00;;;;;;;23.55;7.55;;;;;;;26.39;53.79;101206.75;4995716;28;20030;-80
2023/09/07 07:08:25;;;;;;;23.20;7.18;;;;;;;26.44;53.21;101206.13;5002828;28;20033;-78
2023/09/07 07:10:50;;;;;;;15.77;6.30;;;;;;;26.51;53.41;101207.00;5010956;28;20090;-79
2023/09/07 07:13:16;;;;;;;21.45;6.47;;;;;;;26.58;52.87;101202.28;5011156;28;20030;-79
2023/09/07 07:15:42;;;;;;;24.95;8.45;;;;;;;26.65;52.74;101208.66;5004127;28;20038;-80
2023/09/07 07:18:10;;;;;;;19.90;6.88;;;;;;;26.62;52.93;101199.94;4986139;28;20030;-80
2023/09/07 07:20:40;;;;;;;15.43;6.22;;;;;;;26.77;52.71;101206.91;4989301;28;20042;-80
2023/09/07 07:23:08;;;;;;;22.13;6.40;;;;;;;26.90;52.75;101214.34;4974535;28;20649;-80
2023/09/07 07:25:34;;;;;;;16.75;7.00;;;;;;;27.04;52.51;101211.31;4991612;28;20026;-80
2023/09/07 07:28:05;;;;;;;25.77;7.25;;;;;;;27.09;50.99;101210.69;4985533;28;20033;-79
2023/09/07 07:30:34;;;;;;;19.63;6.68;;;;;;;27.22;51.00;101204.22;4985373;28;20030;-81
2023/09/07 07:33:00;;;;;;;22.65;6.20;;;;;;;27.22;49.89;101194.03;4990398;28;20109;-80
2023/09/07 07:35:26;;;;;;;20.40;5.72;;;;;;;27.33;49.54;101214.59;4990916;28;20026;-81
2023/09/07 07:37:51;;;;;;;15.25;5.95;;;;;;;27.43;49.75;101190.16;4980761;28;20448;-81
2023/09/07 07:40:20;;;;;;;18.55;6.53;;;;;;;27.58;48.76;101198.97;4971368;28;20030;-80
2023/09/07 07:42:46;;;;;;;17.45;6.57;;;;;;;27.51;47.96;101199.00;4971303;28;20498;-80
2023/09/07 07:45:12;;;;;;;14.18;5.82;;;;;;;27.59;46.92;101203.41;4973044;28;20046;-80
2023/09/07 07:47:38;;;;;;;39.78;7.45;;;;;;;27.64;47.32;101203.63;4977769;28;20043;-82
2023/09/07 07:50:04;;;;;;;9.95;5.30;;;;;;;27.68;47.50;101202.06;4983825;28;20049;-81
2023/09/07 07:52:29;;;;;;;16.85;5.32;;;;;;;27.69;47.40;101189.09;4990985;28;20018;-81
2023/09/07 07:54:55;;;;;;;34.65;7.15;;;;;;;27.67;47.69;101178.28;4973107;28;20558;-81
2023/09/07 07:57:20;;;;;;;20.90;5.25;;;;;;;27.85;46.53;101183.91;4993915;28;20041;-81
2023/09/07 07:59:46;;;;;;;15.95;6.57;;;;;;;28.02;46.37;101190.56;4989680;28;20038;-80
2023/09/07 08:02:11;;;;;;;15.25;5.55;;;;;;;28.01;46.74;101169.50;4990239;28;20109;-81
2023/09/07 08:04:36;;;;;;;23.05;7.00;;;;;;;28.20;46.73;101181.50;4989601;28;20061;-80
2023/09/07 08:07:06;;;;;;;33.47;6.75;;;;;;;28.24;46.75;101168.06;4989421;28;20038;-81
2023/09/07 08:09:32;;;;;;;24.75;6.82;;;;;;;28.39;46.06;101187.91;4989563;28;20045;-81
2023/09/07 08:11:58;;;;;;;11.70;5.82;;;;;;;28.29;45.85;101179.28;4990084;28;20415;-81
2023/09/07 08:14:25;;;;;;;27.02;6.82;;;;;;;28.36;46.54;101183.69;4989123;28;20030;-81
2023/09/07 08:16:50;;;;;;;31.98;7.05;;;;;;;28.43;46.23;101176.16;4989623;28;20038;-80
2023/09/07 08:19:16;;;;;;;23.67;6.68;;;;;;;28.38;46.98;101158.53;4989722;28;20479;-80
2023/09/07 08:21:42;;;;;;;19.52;6.50;;;;;;;28.42;46.02;101166.16;4989853;28;20033;-80
2023/09/07 08:24:08;;;;;;;13.55;6.30;;;;;;;28.49;47.90;101182.72;4988893;28;20271;-81
2023/09/07 08:26:35;;;;;;;25.15;6.97;;;;;;;28.66;49.54;101163.59;4990237;28;20034;-80
2023/09/07 08:29:05;;;;;;;17.33;6.97;;;;;;;28.55;50.45;101171.56;4989791;28;20466;-81
2023/09/07 08:31:33;;;;;;;18.92;6.70;;;;;;;28.59;49.60;101170.00;4989018;28;20384;-82
2023/09/07 08:34:00;;;;;;;17.83;6.60;;;;;;;28.71;49.17;101172.94;4989513;28;20030;-82
2023/09/07 08:36:28;;;;;;;27.30;6.90;;;;;;;28.78;49.65;101170.91;4989563;28;20030;-80
2023/09/07 08:38:54;;;;;;;34.28;7.63;;;;;;;28.87;48.47;101177.81;4989596;28;20023;-81
2023/09/07 08:41:21;;;;;;;18.70;5.97;;;;;;;29.02;49.92;101178.28;4987475;28;20030;-81
2023/09/07 08:43:46;;;;;;;15.52;5.82;;;;;;;29.06;49.75;101149.03;4989530;28;20029;-80
2023/09/07 08:46:20;;;;;;;24.42;6.88;;;;;;;29.23;49.11;101162.25;4989583;28;20046;-81
2023/09/07 08:48:46;;;;;;;18.00;6.05;;;;;;;29.30;48.74;101163.00;4989168;28;20487;-80
2023/09/07 08:51:12;;;;;;;17.23;5.45;;;;;;;29.21;48.38;101173.56;4988464;28;20042;-81
2023/09/07 08:53:40;;;;;;;14.88;5.97;;;;;;;29.22;48.24;101179.94;4989496;28;20026;-81
2023/09/07 08:56:09;;;;;;;17.10;5.95;;;;;;;29.28;48.45;101168.81;4989491;28;20085;-81
2023/09/07 08:58:36;;;;;;;22.98;6.80;;;;;;;29.21;49.16;101172.69;4971004;28;20113;-80
2023/09/07 09:01:02;;;;;;;17.42;6.28;;;;;;;29.12;48.80;101150.88;4980118;28;20041;-80
2023/09/07 09:03:29;;;;;;;15.35;6.03;;;;;;;29.28;48.06;101165.19;4989049;28;20034;-81
2023/09/07 09:05:56;;;;;;;17.60;6.15;;;;;;;29.37;47.40;101161.00;4989533;28;20033;-80
2023/09/07 09:08:24;;;;;;;13.60;5.90;;;;;;;29.40;46.61;101166.06;4988516;28;20057;-81
2023/09/07 09:10:58;;;;;;;19.90;6.72;;;;;;;29.49;46.64;101170.22;4989647;28;20026;-81
2023/09/07 09:13:29;;;;;;;19.05;5.55;;;;;;;29.56;46.66;101170.97;4988920;28;20022;-82
2023/09/07 09:15:54;;;;;;;31.55;6.47;;;;;;;29.52;46.85;101164.19;4989112;28;20038;-80
2023/09/07 09:18:20;;;;;;;18.20;6.43;;;;;;;29.57;45.67;101156.84;4989745;28;20447;-81
2023/09/07 09:20:45;;;;;;;14.30;5.18;;;;;;;29.55;45.67;101144.31;4989341;28;20026;-80
2023/09/07 09:23:13;;;;;;;16.73;6.18;;;;;;;29.67;45.52;101156.28;4993586;28;20022;-81
2023/09/07 09:25:41;;;;;;;26.00;6.95;;;;;;;29.62;45.29;101165.31;4993505;28;20124;-81
2023/09/07 09:28:11;;;;;;;16.90;7.20;;;;;;;29.67;44.79;101157.13;4993327;28;20091;-81
2023/09/07 09:30:37;;;;;;;27.05;6.43;;;;;;;29.61;45.47;101157.22;4975411;28;20084;-81
2023/09/07 09:33:05;;;;;;;14.25;6.15;;;;;;;29.43;45.82;101162.84;4930815;29;20420;-81
2023/09/07 09:35:31;;;;;;;24.60;6.22;;;;;;;29.58;45.51;101157.69;4933407;29;20055;-83
2023/09/07 09:38:04;;;;;;;17.10;5.88;;;;;;;29.47;45.64;101144.66;4933112;29;20045;-79
2023/09/07 09:40:31;;;;;;;19.15;6.82;;;;;;;29.59;44.61;101149.16;4931938;29;20046;-82
2023/09/07 09:42:58;;;;;;;14.10;5.18;;;;;;;29.52;43.06;101140.09;4928220;29;20044;-81
2023/09/07 09:45:26;;;;;;;25.98;6.53;;;;;;;29.64;42.85;101134.56;4933055;29;20480;-81
2023/09/07 09:47:55;;;;;;;13.82;5.45;;;;;;;29.66;42.71;101155.44;4929020;29;20090;-84
2023/09/07 09:50:22;;;;;;;17.92;5.90;;;;;;;29.75;43.74;101147.63;4933119;29;20071;-80
2023/09/07 09:52:48;;;;;;;20.23;7.20;;;;;;;29.95;43.61;101136.22;4932821;29;20055;-84
2023/09/07 09:55:15;;;;;;;14.40;6.47;;;;;;;30.00;43.28;101147.47;4927964;29;20040;-80
2023/09/07 09:57:41;;;;;;;16.20;6.25;;;;;;;29.94;42.93;101143.69;4933170;29;20039;-84
2023/09/07 10:02:44;;;;;;;28.70;5.97;;;;;;;30.01;42.88;101147.22;4932306;29;20114;-82
2023/09/07 10:05:11;;;;;;;12.98;5.95;;;;;;;30.09;43.00;101146.84;4991032;28;20117;-82
2023/09/07 10:07:44;;;;;;;16.48;5.82;;;;;;;30.24;43.41;101138.88;4993053;28;20137;-84
2023/09/07 10:10:14;;;;;;;13.95;6.38;;;;;;;30.22;43.59;101145.75;4953527;28;20038;-82
2023/09/07 10:12:44;;;;;;;12.15;5.68;;;;;;;30.03;43.63;101127.56;4975605;28;20034;-81
2023/09/07 10:15:23;;;;;;;20.50;6.75;;;;;;;30.12;43.77;101142.78;4988793;28;20029;-84
2023/09/07 10:17:52;;;;;;;17.88;7.13;;;;;;;30.17;43.21;101140.97;4991752;28;20030;-81
2023/09/07 10:20:22;;;;;;;24.15;7.50;;;;;;;30.18;42.71;101139.84;4991139;28;20019;-87
2023/09/07 10:22:48;;;;;;;16.52;6.13;;;;;;;30.24;41.15;101127.78;4983712;28;20031;-81
2023/09/07 10:25:21;;;;;;;27.27;5.95;;;;;;;30.23;41.07;101128.03;4973032;28;20384;-82
2023/09/07 10:27:47;;;;;;;29.50;7.32;;;;;;;30.18;41.90;101131.53;4990292;28;20045;-80
2023/09/07 10:30:13;;;;;;;16.98;6.65;;;;;;;30.07;43.38;101120.44;4992749;28;20676;-82
2023/09/07 10:32:40;;;;;;;31.35;7.68;;;;;;;30.14;42.38;101124.78;4975022;28;20037;-84
2023/09/07 10:35:16;;;;;;;17.25;5.55;;;;;;;30.24;42.46;101118.63;4993001;28;20018;-84
2023/09/07 10:37:48;;;;;;;21.02;7.45;;;;;;;30.39;42.98;101137.59;4992729;28;20486;-83
2023/09/07 10:40:21;;;;;;;;;;;;;;;30.56;42.74;101133.84;4967115;28;20413;-86
2023/09/07 10:42:46;;;;;;;;;;;;;;;30.56;41.61;101127.44;4992916;28;19909;-84
2023/09/07 10:45:15;;;;;;;17.30;5.95;;;;;;;30.51;41.31;101127.31;4992355;28;19988;-82
2023/09/07 10:47:45;;;;;;;13.02;6.68;;;;;;;30.45;43.03;101143.03;4992238;28;20056;-85
2023/09/07 10:50:12;;;;;;;56.72;9.43;;;;;;;30.49;43.20;101129.47;4992691;28;20026;-83
2023/09/07 10:52:40;;;;;;;30.17;7.50;;;;;;;30.37;43.27;101129.47;4991052;28;20454;-82
2023/09/07 10:55:06;;;;;;;27.02;6.88;;;;;;;30.43;42.06;101122.13;4990862;28;20085;-82
2023/09/07 10:57:31;;;;;;;13.57;5.70;;;;;;;30.49;42.65;101132.25;4992046;28;20060;-81
2023/09/07 10:59:57;;;;;;;26.92;7.93;;;;;;;30.55;41.89;101111.88;4991656;28;20022;-80
2023/09/07 11:02:22;;;;;;;9.80;4.93;;;;;;;30.55;40.79;101106.31;4991957;28;20026;-80
2023/09/07 11:04:48;;;;;;;24.83;7.28;;;;;;;30.62;41.88;101137.56;4992080;28;20498;-80
2023/09/07 11:07:13;;;;;;;17.10;6.85;;;;;;;30.50;42.49;101128.41;4991394;28;20034;-83
2023/09/07 11:09:43;;;;;;;15.05;5.60;;;;;;;30.70;42.24;101128.88;4956865;28;20076;-81
2023/09/07 11:12:12;;;;;;;29.00;6.82;;;;;;;30.65;40.98;101128.75;4991395;28;20065;-82
2023/09/07 11:14:39;;;;;;;17.67;6.15;;;;;;;30.77;41.53;101124.00;4991654;28;20026;-79
2023/09/07 11:17:04;;;;;;;35.13;6.90;;;;;;;30.81;42.67;101118.81;4974037;28;20454;-82